createdAt,value
2022-09-03T00:00:17.300Z,101405.80
2022-09-03T00:03:24.588Z,101407.27
2022-09-03T00:06:17.842Z,101408.84
2022-09-03T00:09:00.763Z,101411.33
2022-09-03T00:11:38.866Z,101402.75
2022-09-03T00:14:14.413Z,101399.62
2022-09-03T00:16:56.083Z,101400.30
2022-09-03T00:19:32.076Z,101404.44
2022-09-03T00:22:24.615Z,101403.92
2022-09-03T00:24:52.729Z,101397.17
2022-09-03T00:27:27.615Z,101396.61
2022-09-03T00:30:16.934Z,101401.50
2022-09-03T00:32:54.686Z,101402.55
2022-09-03T00:35:44.622Z,101393.05
2022-09-03T00:38:12.042Z,101393.89
2022-09-03T00:41:06.518Z,101393.95
2022-09-03T00:44:14.428Z,101395.60
2022-09-03T00:47:00.541Z,101391.23
2022-09-03T00:50:00.053Z,101392.39
2022-09-03T00:52:48.698Z,101393.31
2022-09-03T00:55:58.463Z,101395.13
2022-09-03T00:58:51.490Z,101397.25
2022-09-03T01:01:35.083Z,101397.56
2022-09-03T01:04:32.802Z,101397.27
2022-09-03T01:07:40.191Z,101398.95
2022-09-03T01:10:27.003Z,101399.28
2022-09-03T01:13:13.341Z,101401.33
2022-09-03T01:16:13.128Z,101399.89
2022-09-03T01:18:55.743Z,101397.73
2022-09-03T01:21:44.200Z,101398.45
2022-09-03T01:24:39.104Z,101397.17
2022-09-03T01:27:43.625Z,101392.52
2022-09-03T01:30:17.864Z,101394.21
2022-09-03T01:33:13.855Z,101390.95
2022-09-03T01:35:51.231Z,101387.95
2022-09-03T01:38:38.367Z,101388.55
2022-09-03T01:41:54.072Z,101387.66
2022-09-03T01:44:50.707Z,101388.91
2022-09-03T01:47:57.592Z,101390.27
2022-09-03T01:50:54.529Z,101386.76
2022-09-03T01:54:20.773Z,101387.33
2022-09-03T01:57:35.690Z,101384.60
2022-09-03T02:00:13.326Z,101384.06
2022-09-03T02:02:51.167Z,101383.19
2022-09-03T02:05:26.150Z,101384.77
2022-09-03T02:08:03.479Z,101384.16
2022-09-03T02:10:54.992Z,101383.48
2022-09-03T02:13:31.819Z,101385.95
2022-09-03T02:16:05.738Z,101387.19
2022-09-03T02:18:41.215Z,101384.72
2022-09-03T02:21:10.423Z,101380.83
2022-09-03T02:23:40.627Z,101379.25
2022-09-03T02:26:11.560Z,101379.04
2022-09-03T02:28:38.944Z,101380.23
2022-09-03T02:31:06.556Z,101376.92
2022-09-03T02:33:39.366Z,101378.83
2022-09-03T02:36:11.982Z,101382.73
2022-09-03T02:38:42.269Z,101385.73
2022-09-03T02:41:14.663Z,101386.32
2022-09-03T02:44:12.025Z,101384.56
2022-09-03T02:47:03.969Z,101388.58
2022-09-03T02:49:32.828Z,101383.02
2022-09-03T02:52:09.120Z,101382.10
2022-09-03T02:54:39.487Z,101382.68
2022-09-03T02:57:10.158Z,101382.91
2022-09-03T02:59:39.471Z,101379.27
2022-09-03T03:02:08.259Z,101380.77
2022-09-03T03:04:35.930Z,101383.89
2022-09-03T03:07:03.809Z,101384.18
2022-09-03T03:09:31.141Z,101384.59
2022-09-03T03:11:58.911Z,101379.80
2022-09-03T03:14:26.296Z,101377.96
2022-09-03T03:16:53.865Z,101371.16
2022-09-03T03:19:21.387Z,101373.38
2022-09-03T03:21:48.849Z,101367.91
2022-09-03T03:24:16.312Z,101375.96
2022-09-03T03:26:43.754Z,101376.55
2022-09-03T03:29:17.766Z,101376.11
2022-09-03T03:31:45.653Z,101376.67
2022-09-03T03:34:13.021Z,101375.41
2022-09-03T03:36:40.447Z,101372.86
2022-09-03T03:39:07.952Z,101372.88
2022-09-03T03:41:39.158Z,101372.58
2022-09-03T03:44:08.359Z,101372.84
2022-09-03T03:46:39.241Z,101375.91
2022-09-03T03:49:08.355Z,101379.69
2022-09-03T03:51:37.478Z,101378.48
2022-09-03T03:54:05.743Z,101382.20
2022-09-03T03:56:35.178Z,101383.48
2022-09-03T03:59:03.755Z,101380.48
2022-09-03T04:01:32.375Z,101381.09
2022-09-03T04:04:00.249Z,101376.55
2022-09-03T04:06:28.921Z,101375.31
2022-09-03T04:08:56.786Z,101371.44
2022-09-03T04:11:25.650Z,101376.64
2022-09-03T04:13:54.135Z,101382.95
2022-09-03T04:16:25.384Z,101386.91
2022-09-03T04:18:55.698Z,101393.04
2022-09-03T04:21:29.085Z,101396.81
2022-09-03T04:23:58.366Z,101391.77
2022-09-03T04:26:31.183Z,101386.83
2022-09-03T04:29:01.816Z,101381.13
2022-09-03T04:31:30.854Z,101378.66
2022-09-03T04:33:59.717Z,101377.48
2022-09-03T04:36:30.461Z,101385.05
2022-09-03T04:39:01.926Z,101389.06
2022-09-03T04:41:31.294Z,101399.52
2022-09-03T04:43:59.679Z,101408.29
2022-09-03T04:46:32.723Z,101415.38
2022-09-03T04:49:00.430Z,101419.57
2022-09-03T04:51:29.621Z,101419.30
2022-09-03T04:54:02.013Z,101414.85
2022-09-03T04:56:33.655Z,101417.34
2022-09-03T04:59:05.348Z,101420.05
2022-09-03T05:01:35.756Z,101424.27
2022-09-03T05:04:04.694Z,101429.10
2022-09-03T05:06:33.707Z,101427.98
2022-09-03T05:09:02.269Z,101418.46
2022-09-03T05:11:30.484Z,101416.48
2022-09-03T05:13:59.894Z,101415.37
2022-09-03T05:16:30.484Z,101419.05
2022-09-03T05:19:00.751Z,101419.85
2022-09-03T05:21:29.642Z,101424.13
2022-09-03T05:23:57.916Z,101428.02
2022-09-03T05:26:29.117Z,101432.40
2022-09-03T05:29:08.299Z,101425.76
2022-09-03T05:31:41.371Z,101418.34
2022-09-03T05:34:09.920Z,101419.42
2022-09-03T05:36:38.152Z,101415.53
2022-09-03T05:39:06.633Z,101419.86
2022-09-03T05:41:34.723Z,101421.13
2022-09-03T05:44:03.582Z,101418.14
2022-09-03T05:46:33.088Z,101420.65
2022-09-03T05:49:03.121Z,101414.16
2022-09-03T05:51:31.602Z,101410.83
2022-09-03T05:53:59.457Z,101411.08
2022-09-03T05:56:30.755Z,101417.29
2022-09-03T05:59:01.282Z,101423.13
2022-09-03T06:01:35.104Z,101421.75
2022-09-03T06:04:07.646Z,101425.25
2022-09-03T06:06:38.126Z,101433.67
2022-09-03T06:09:12.856Z,101439.75
2022-09-03T06:11:42.338Z,101445.73
2022-09-03T06:14:13.670Z,101446.04
2022-09-03T06:16:52.284Z,101440.98
2022-09-03T06:19:19.965Z,101439.45
2022-09-03T06:21:47.686Z,101438.34
2022-09-03T06:24:18.615Z,101437.93
2022-09-03T06:26:46.326Z,101431.80
2022-09-03T06:29:14.563Z,101432.14
2022-09-03T06:31:42.588Z,101432.23
2022-09-03T06:34:10.110Z,101437.70
2022-09-03T06:36:41.027Z,101436.70
2022-09-03T06:39:08.528Z,101437.50
2022-09-03T06:41:36.247Z,101436.64
2022-09-03T06:44:11.043Z,101436.73
2022-09-03T06:46:42.089Z,101440.10
2022-09-03T06:49:11.228Z,101444.38
2022-09-03T06:51:43.598Z,101449.70
2022-09-03T06:54:12.197Z,101451.85
2022-09-03T06:56:41.651Z,101451.73
2022-09-03T06:59:13.217Z,101449.21
2022-09-03T07:01:44.799Z,101450.45
2022-09-03T07:04:20.205Z,101452.00
2022-09-03T07:06:48.634Z,101458.55
2022-09-03T07:09:17.963Z,101466.65
2022-09-03T07:11:47.246Z,101475.11
2022-09-03T07:14:18.320Z,101481.42
2022-09-03T07:16:47.565Z,101487.38
2022-09-03T07:19:15.340Z,101491.14
2022-09-03T07:21:49.603Z,101497.47
2022-09-03T07:24:21.407Z,101500.12
2022-09-03T07:26:49.491Z,101502.20
2022-09-03T07:29:19.751Z,101502.01
2022-09-03T07:31:48.430Z,101504.63
2022-09-03T07:34:16.226Z,101500.48
2022-09-03T07:36:48.883Z,101496.97
2022-09-03T07:39:17.921Z,101496.48
2022-09-03T07:41:46.568Z,101502.74
2022-09-03T07:44:18.774Z,101501.98
2022-09-03T07:46:47.273Z,101503.02
2022-09-03T07:49:14.720Z,101505.43
2022-09-03T07:51:42.124Z,101501.20
2022-09-03T07:54:10.805Z,101505.79
2022-09-03T07:56:41.613Z,101506.71
2022-09-03T07:59:12.280Z,101498.91
2022-09-03T08:01:41.692Z,101500.27
2022-09-03T08:04:10.588Z,101510.20
2022-09-03T08:06:39.089Z,101507.61
2022-09-03T08:09:10.926Z,101503.85
2022-09-03T08:11:42.943Z,101507.40
2022-09-03T08:14:13.601Z,101508.30
2022-09-03T08:16:47.558Z,101505.41
2022-09-03T08:19:20.590Z,101508.49
2022-09-03T08:21:48.237Z,101507.93
2022-09-03T08:24:20.514Z,101508.83
2022-09-03T08:26:51.997Z,101507.27
2022-09-03T08:29:21.030Z,101509.37
2022-09-03T08:31:48.686Z,101511.66
2022-09-03T08:34:17.413Z,101515.45
2022-09-03T08:36:46.610Z,101518.66
2022-09-03T08:39:14.331Z,101513.10
2022-09-03T08:41:50.554Z,101516.30
2022-09-03T08:44:58.823Z,101522.50
2022-09-03T08:47:32.625Z,101521.06
2022-09-03T08:50:12.397Z,101523.22
2022-09-03T08:52:51.713Z,101519.48
2022-09-03T08:55:19.450Z,101520.04
2022-09-03T08:57:56.620Z,101518.64
2022-09-03T09:00:24.310Z,101514.20
2022-09-03T09:03:30.788Z,101515.15
2022-09-03T09:06:20.137Z,101518.01
2022-09-03T09:09:15.845Z,101513.94
2022-09-03T09:12:20.254Z,101509.13
2022-09-03T09:15:16.039Z,101495.98
2022-09-03T09:18:07.539Z,101503.96
2022-09-03T09:21:11.550Z,101502.11
2022-09-03T09:23:53.987Z,101505.30
2022-09-03T09:26:22.328Z,101507.65
2022-09-03T09:29:09.486Z,101507.48
2022-09-03T09:31:39.536Z,101503.66
2022-09-03T09:34:08.627Z,101500.33
2022-09-03T09:37:13.045Z,101491.83
2022-09-03T09:39:53.198Z,101492.31
2022-09-03T09:42:22.718Z,101494.85
2022-09-03T09:44:50.694Z,101499.81
2022-09-03T09:47:30.972Z,101498.71
2022-09-03T09:50:02.506Z,101501.06
2022-09-03T09:52:32.069Z,101496.82
2022-09-03T09:55:18.976Z,101494.65
2022-09-03T09:57:46.438Z,101491.70
2022-09-03T10:00:17.634Z,101491.44
2022-09-03T10:02:54.326Z,101493.83
2022-09-03T10:05:26.122Z,101492.25
2022-09-03T10:08:20.776Z,101489.09
2022-09-03T10:10:50.650Z,101490.84
2022-09-03T10:13:23.659Z,101489.77
2022-09-03T10:16:15.567Z,101490.44
2022-09-03T10:19:06.912Z,101487.55
2022-09-03T10:22:10.422Z,101491.11
2022-09-03T10:24:52.754Z,101486.34
2022-09-03T10:27:21.664Z,101486.36
2022-09-03T10:29:49.943Z,101489.52
2022-09-03T10:32:38.822Z,101488.88
2022-09-03T10:35:34.828Z,101492.60
2022-09-03T10:38:10.913Z,101496.20
2022-09-03T10:40:51.070Z,101499.06
2022-09-03T10:43:35.227Z,101497.65
2022-09-03T10:46:21.871Z,101489.40
2022-09-03T10:49:19.259Z,101485.11
2022-09-03T10:52:10.926Z,101482.50
2022-09-03T10:55:32.209Z,101485.05
2022-09-03T10:58:37.879Z,101489.06
2022-09-03T11:01:35.258Z,101490.98
2022-09-03T11:04:38.952Z,101487.52
2022-09-03T11:07:12.867Z,101486.55
2022-09-03T11:10:15.953Z,101477.95
2022-09-03T11:13:02.614Z,101479.10
2022-09-03T11:15:48.878Z,101474.23
2022-09-03T11:18:34.664Z,101475.81
2022-09-03T11:21:11.993Z,101474.79
2022-09-03T11:23:45.401Z,101472.52
2022-09-03T11:26:18.478Z,101471.33
2022-09-03T11:29:24.862Z,101469.24
2022-09-03T11:32:02.617Z,101472.27
2022-09-03T11:34:44.054Z,101475.67
2022-09-03T11:37:24.187Z,101482.34
2022-09-03T11:40:17.937Z,101478.20
2022-09-03T11:42:46.984Z,101475.69
2022-09-03T11:45:35.624Z,101478.85
2022-09-03T11:48:30.228Z,101477.77
2022-09-03T11:51:08.573Z,101478.30
2022-09-03T11:53:39.783Z,101461.61
2022-09-03T11:56:07.312Z,101470.24
2022-09-03T11:58:46.016Z,101469.32
2022-09-03T12:01:18.441Z,101457.31
2022-09-03T12:03:58.237Z,101457.23
2022-09-03T12:06:59.332Z,101453.08
2022-09-03T12:09:35.927Z,101457.60
2022-09-03T12:12:41.250Z,101457.93
2022-09-03T12:15:40.040Z,101455.52
2022-09-03T12:18:21.321Z,101455.27
2022-09-03T12:21:04.389Z,101455.31
2022-09-03T12:23:45.571Z,101456.67
2022-09-03T12:26:26.917Z,101450.98
2022-09-03T12:28:58.136Z,101444.75
2022-09-03T12:31:29.893Z,101447.59
2022-09-03T12:34:07.432Z,101445.38
2022-09-03T12:36:44.406Z,101444.39
2022-09-03T12:39:15.880Z,101433.54
2022-09-03T12:42:04.882Z,101430.75
2022-09-03T12:44:36.113Z,101431.36
2022-09-03T12:50:07.381Z,101427.86
2022-09-03T12:52:50.053Z,101428.05
2022-09-03T12:55:40.029Z,101430.06
2022-09-03T12:58:44.878Z,101428.96
2022-09-03T13:01:21.848Z,101436.02
2022-09-03T13:03:59.201Z,101434.91
2022-09-03T13:06:49.443Z,101437.98
2022-09-03T13:09:23.152Z,101436.67
2022-09-03T13:11:52.133Z,101435.09
2022-09-03T13:14:19.685Z,101436.96
2022-09-03T13:16:47.146Z,101438.96
2022-09-03T13:20:01.450Z,101439.13
2022-09-03T13:23:08.252Z,101439.55
2022-09-03T13:26:06.384Z,101434.61
2022-09-03T13:28:39.649Z,101437.13
2022-09-03T13:31:40.650Z,101436.15
2022-09-03T13:34:32.836Z,101433.97
2022-09-03T13:37:48.854Z,101433.52
2022-09-03T13:40:33.743Z,101435.58
2022-09-03T13:43:36.940Z,101432.36
2022-09-03T13:46:33.217Z,101429.62
2022-09-03T13:50:01.358Z,101428.90
2022-09-03T13:53:36.647Z,101422.63
2022-09-03T13:56:46.141Z,101432.19
2022-09-03T13:59:26.593Z,101436.00
2022-09-03T14:02:32.005Z,101439.48
2022-09-03T14:05:24.023Z,101439.58
2022-09-03T14:07:58.294Z,101437.52
2022-09-03T14:10:55.868Z,101440.52
2022-09-03T14:13:50.788Z,101442.52
2022-09-03T14:17:14.975Z,101438.14
2022-09-03T14:20:05.077Z,101437.20
2022-09-03T14:22:53.996Z,101431.80
2022-09-03T14:25:25.266Z,101437.02
2022-09-03T14:27:55.310Z,101437.15
2022-09-03T14:30:48.192Z,101441.39
2022-09-03T14:34:10.842Z,101437.48
2022-09-03T14:37:04.030Z,101439.17
2022-09-03T14:39:55.021Z,101440.20
2022-09-03T14:42:34.203Z,101439.05
2022-09-03T14:45:18.386Z,101442.16
2022-09-03T14:48:55.796Z,101439.61
2022-09-03T14:51:41.312Z,101438.90
2022-09-03T14:54:31.346Z,101439.42
2022-09-03T14:57:45.582Z,101438.63
2022-09-03T15:00:19.993Z,101441.70
2022-09-03T15:03:51.344Z,101439.00
2022-09-03T15:06:47.054Z,101434.40
2022-09-03T15:09:48.122Z,101432.25
2022-09-03T15:12:30.264Z,101432.70
2022-09-03T15:15:08.612Z,101428.66
2022-09-03T15:18:10.476Z,101431.73
2022-09-03T15:20:54.283Z,101429.58
2022-09-03T15:23:43.295Z,101434.33
2022-09-03T15:26:35.443Z,101435.92
2022-09-03T15:29:24.600Z,101436.34
2022-09-03T15:32:00.218Z,101437.31
2022-09-03T15:35:11.508Z,101435.72
2022-09-03T15:37:59.078Z,101432.63
2022-09-03T15:40:45.315Z,101431.38
2022-09-03T15:43:33.486Z,101438.54
2022-09-03T15:46:14.431Z,101438.02
2022-09-03T15:49:49.635Z,101438.23
2022-09-03T15:52:45.545Z,101430.65
2022-09-03T15:55:29.054Z,101430.20
2022-09-03T15:58:11.479Z,101429.02
2022-09-03T16:01:09.387Z,101428.83
2022-09-03T16:04:00.950Z,101429.91
2022-09-03T16:06:37.657Z,101429.20
2022-09-03T16:09:15.986Z,101427.39
2022-09-03T16:12:04.420Z,101431.11
2022-09-03T16:14:45.958Z,101429.84
2022-09-03T16:17:35.002Z,101427.23
2022-09-03T16:20:23.458Z,101431.86
2022-09-03T16:23:23.403Z,101428.94
2022-09-03T16:26:07.066Z,101427.65
2022-09-03T16:28:59.520Z,101427.99
2022-09-03T16:32:07.089Z,101439.14
2022-09-03T16:34:55.670Z,101440.58
2022-09-03T16:38:24.637Z,101439.11
2022-09-03T16:41:01.717Z,101438.60
2022-09-03T16:43:41.788Z,101444.88
2022-09-03T16:46:43.064Z,101442.92
2022-09-03T16:49:21.565Z,101442.43
2022-09-03T16:52:10.415Z,101448.36
2022-09-03T16:55:02.923Z,101450.77
2022-09-03T16:58:09.983Z,101451.50
2022-09-03T17:00:53.134Z,101448.40
2022-09-03T17:04:02.100Z,101461.56
2022-09-03T17:06:56.421Z,101464.48
2022-09-03T17:09:58.378Z,101467.64
2022-09-03T17:12:51.044Z,101470.98
2022-09-03T17:15:30.660Z,101477.20
2022-09-03T17:18:30.461Z,101481.20
2022-09-03T17:21:14.094Z,101486.01
2022-09-03T17:24:02.388Z,101489.41
2022-09-03T17:27:04.121Z,101488.80
2022-09-03T17:30:07.317Z,101490.69
2022-09-03T17:32:57.278Z,101495.27
2022-09-03T17:35:37.920Z,101499.15
2022-09-03T17:38:29.866Z,101503.02
2022-09-03T17:41:32.358Z,101507.89
2022-09-03T17:44:44.529Z,101502.13
2022-09-03T17:48:05.138Z,101503.02
2022-09-03T17:50:46.538Z,101510.51
2022-09-03T17:54:02.367Z,101513.95
2022-09-03T17:56:48.948Z,101507.70
2022-09-03T17:59:37.432Z,101510.70
2022-09-03T18:03:01.567Z,101511.93
2022-09-03T18:05:32.001Z,101510.08
2022-09-03T18:08:13.354Z,101511.27
2022-09-03T18:11:34.447Z,101515.39
2022-09-03T18:14:22.564Z,101511.65
2022-09-03T18:17:09.864Z,101520.24
2022-09-03T18:20:06.637Z,101512.52
2022-09-03T18:23:24.386Z,101512.89
2022-09-03T18:26:24.342Z,101517.02
2022-09-03T18:29:28.236Z,101516.42
2022-09-03T18:32:14.562Z,101515.34
2022-09-03T18:35:01.297Z,101515.42
2022-09-03T18:37:46.777Z,101515.54
2022-09-03T18:40:46.257Z,101514.65
2022-09-03T18:43:46.058Z,101510.51
2022-09-03T18:51:12.347Z,101516.17
2022-09-03T18:54:10.925Z,101515.42
2022-09-03T18:57:03.664Z,101516.10
2022-09-03T19:00:29.146Z,101513.62
2022-09-03T19:03:57.664Z,101513.81
2022-09-03T19:06:59.340Z,101516.29
2022-09-03T19:09:55.299Z,101517.39
2022-09-03T19:13:31.492Z,101522.69
2022-09-03T19:17:22.531Z,101530.66
2022-09-03T19:20:36.502Z,101539.65
2022-09-03T19:23:22.609Z,101542.38
2022-09-03T19:26:11.851Z,101539.98
2022-09-03T19:29:06.191Z,101541.23
2022-09-03T19:32:22.733Z,101536.05
2022-09-03T19:35:33.175Z,101542.88
2022-09-03T19:38:52.701Z,101548.25
2022-09-03T19:42:30.259Z,101547.23
2022-09-03T19:45:56.716Z,101549.50
2022-09-03T19:49:01.786Z,101553.31
2022-09-03T19:52:12.801Z,101559.23
2022-09-03T19:54:59.726Z,101562.63
2022-09-03T19:57:48.874Z,101561.69
2022-09-03T20:00:35.278Z,101563.20
2022-09-03T20:03:25.935Z,101558.06
2022-09-03T20:06:12.154Z,101561.98
2022-09-03T20:08:58.375Z,101560.23
2022-09-03T20:11:30.384Z,101560.58
2022-09-03T20:14:17.843Z,101560.89
2022-09-03T20:17:18.851Z,101562.70
2022-09-03T20:20:17.486Z,101562.35
2022-09-03T20:23:18.030Z,101564.23
2022-09-03T20:26:14.364Z,101564.02
2022-09-03T20:29:13.720Z,101565.70
2022-09-03T20:31:53.463Z,101569.23
2022-09-03T20:35:03.034Z,101569.83
2022-09-03T20:38:20.980Z,101568.27
2022-09-03T20:41:28.390Z,101570.05
2022-09-03T20:44:02.733Z,101573.91
2022-09-03T20:46:51.763Z,101574.10
2022-09-03T20:49:50.249Z,101572.95
2022-09-03T20:52:45.482Z,101573.48
2022-09-03T20:55:22.840Z,101579.04
2022-09-03T20:58:17.945Z,101584.34
2022-09-03T21:01:05.777Z,101580.36
2022-09-03T21:03:54.946Z,101584.19
2022-09-03T21:06:50.470Z,101584.73
2022-09-03T21:09:31.138Z,101586.66
2022-09-03T21:12:04.631Z,101586.59
2022-09-03T21:14:38.627Z,101590.58
2022-09-03T21:17:41.847Z,101593.07
2022-09-03T21:20:59.877Z,101591.75
2022-09-03T21:23:41.727Z,101597.63
2022-09-03T21:26:25.504Z,101600.13
2022-09-03T21:29:07.118Z,101603.62
2022-09-03T21:32:03.877Z,101603.65
2022-09-03T21:34:41.572Z,101607.36
2022-09-03T21:37:12.855Z,101606.63
2022-09-03T21:39:56.455Z,101610.71
2022-09-03T21:42:42.073Z,101609.44
2022-09-03T21:45:44.890Z,101611.11
2022-09-03T21:48:27.104Z,101606.23
2022-09-03T21:50:59.899Z,101608.48
2022-09-03T21:53:35.583Z,101609.02
2022-09-03T21:56:25.948Z,101610.02
2022-09-03T21:59:22.084Z,101608.25
2022-09-03T22:02:16.578Z,101607.73
2022-09-03T22:04:44.288Z,101606.08
2022-09-03T22:07:55.318Z,101602.95
2022-09-03T22:10:44.143Z,101603.65
2022-09-03T22:13:28.938Z,101598.54
2022-09-03T22:16:14.771Z,101597.60
2022-09-03T22:18:43.711Z,101601.17
2022-09-03T22:21:23.167Z,101596.95
2022-09-03T22:24:22.661Z,101596.73
2022-09-03T22:27:22.065Z,101595.87
2022-09-03T22:30:06.534Z,101596.97
2022-09-03T22:32:56.657Z,101596.38
2022-09-03T22:35:54.586Z,101598.24
2022-09-03T22:38:55.535Z,101591.47
2022-09-03T22:41:35.070Z,101593.88
2022-09-03T22:44:31.925Z,101596.27
2022-09-03T22:47:34.000Z,101599.35
2022-09-03T22:50:21.624Z,101596.85
2022-09-03T22:53:06.159Z,101598.34
2022-09-03T22:55:37.118Z,101596.35
2022-09-03T22:58:19.451Z,101595.61
2022-09-03T23:00:57.792Z,101602.17
2022-09-03T23:04:06.637Z,101598.55
2022-09-03T23:06:40.921Z,101600.98
2022-09-03T23:09:15.620Z,101600.02
2022-09-03T23:11:49.748Z,101600.35
2022-09-03T23:14:28.559Z,101599.19
2022-09-03T23:17:13.119Z,101598.19
2022-09-03T23:19:53.069Z,101596.63
2022-09-03T23:22:29.630Z,101599.20
2022-09-03T23:25:06.130Z,101596.36
2022-09-03T23:27:46.463Z,101598.59
2022-09-03T23:30:13.939Z,101597.23
2022-09-03T23:32:41.694Z,101599.07
2022-09-03T23:35:17.851Z,101601.70
2022-09-03T23:38:33.020Z,101599.21
2022-09-03T23:41:07.866Z,101599.70
2022-09-03T23:43:55.284Z,101598.86
2022-09-03T23:46:30.415Z,101600.32
2022-09-03T23:49:28.619Z,101601.95
2022-09-03T23:52:40.389Z,101603.30
2022-09-03T23:55:22.837Z,101610.25
2022-09-03T23:58:24.013Z,101611.34
